Time;durP1;ratioP1;P1;durP2;ratioP2;P2;SDS_P1;SDS_P2;PMS_P1;PMS_P2;Temp;Humidity;BMP_temperature;BMP_pressure;BME280_temperature;BME280_humidity;BME280_pressure;Samples;Min_cycle;Max_cycle;Signal;HPM_P1;HPM_P2
2022/11/03 00:02:20;;;;;;;;;;;11.60;69.60;;;;;;5044020;28;19959;-87
2022/11/03 00:04:45;;;;;;;;;;;11.70;69.30;;;;;;5052833;28;20387;-88
2022/11/03 00:07:14;;;;;;;;;;;11.70;69.50;;;;;;5048758;28;20334;-88
2022/11/03 00:09:39;;;;;;;;;;;11.60;70.00;;;;;;5048290;28;19917;-86
2022/11/03 00:12:07;;;;;;;;;;;11.60;70.10;;;;;;5052057;28;19989;-89
2022/11/03 00:14:32;;;;;;;;;;;11.60;70.20;;;;;;5045304;28;20005;-86
2022/11/03 00:16:58;;;;;;;;;;;11.50;70.70;;;;;;5047507;28;20005;-86
2022/11/03 00:19:23;;;;;;;;;;;11.60;70.40;;;;;;5049195;28;19916;-88
2022/11/03 00:21:48;;;;;;;;;;;11.60;70.50;;;;;;5052724;28;20486;-86
2022/11/03 00:24:14;;;;;;;;;;;11.60;70.70;;;;;;5044970;28;19956;-87
2022/11/03 00:26:40;;;;;;;;;;;11.60;70.80;;;;;;5052029;28;19916;-88
2022/11/03 00:29:07;;;;;;;;;;;11.60;71.00;;;;;;5047567;28;20338;-88
2022/11/03 00:31:33;;;;;;;;;;;11.60;71.00;;;;;;5048513;28;20281;-87
2022/11/03 00:34:00;;;;;;;;;;;11.60;71.40;;;;;;5045079;28;19916;-85
2022/11/03 00:36:29;;;;;;;;;;;11.70;71.10;;;;;;5048179;28;19921;-86
2022/11/03 00:38:55;;;;;;;;;;;11.80;70.90;;;;;;5062129;28;19912;-87
2022/11/03 00:41:21;;;;;;;;;;;11.70;71.10;;;;;;5049052;28;19913;-87
2022/11/03 00:43:47;;;;;;;;;;;11.70;71.10;;;;;;5049336;28;19920;-87
2022/11/03 00:46:13;;;;;;;;;;;11.70;71.30;;;;;;5046218;28;20300;-88
2022/11/03 00:48:38;;;;;;;;;;;11.80;71.10;;;;;;5044815;28;19929;-87
2022/11/03 00:51:04;;;;;;;;;;;11.90;70.80;;;;;;5051300;28;19916;-88
2022/11/03 00:53:30;;;;;;;;;;;11.80;71.60;;;;;;5049845;28;19917;-87
2022/11/03 00:55:56;;;;;;;;;;;11.80;71.40;;;;;;5047936;28;19917;-86
2022/11/03 00:58:21;;;;;;;;;;;11.80;71.50;;;;;;5050586;28;20303;-87
2022/11/03 01:00:47;;;;;;;;;;;11.80;71.50;;;;;;5050076;28;19913;-91
2022/11/03 01:03:13;;;;;;;;;;;11.80;71.40;;;;;;5046544;28;19936;-89
2022/11/03 01:08:33;;;;;;;;;;;11.80;71.60;;;;;;5052860;28;19927;-86
2022/11/03 01:13:54;;;;;;;;;;;11.80;72.30;;;;;;5055355;28;20378;-88
2022/11/03 01:16:19;;;;;;;;;;;11.80;71.80;;;;;;5056019;28;20368;-87
2022/11/03 01:18:45;;;;;;;;;;;11.80;71.90;;;;;;5051392;28;19937;-85
2022/11/03 01:21:10;;;;;;;;;;;11.80;72.30;;;;;;5055953;28;19919;-86
2022/11/03 01:23:36;;;;;;;;;;;11.80;72.30;;;;;;5054773;28;19916;-87
2022/11/03 01:26:05;;;;;;;;;;;11.90;72.20;;;;;;5047118;28;19978;-89
2022/11/03 01:28:35;;;;;;;;;;;11.80;72.10;;;;;;5057830;28;19923;-87
2022/11/03 01:31:07;;;;;;;;;;;11.70;72.60;;;;;;5057495;28;19913;-87
2022/11/03 01:33:33;;;;;;;;;;;11.80;72.50;;;;;;5060335;28;19943;-87
2022/11/03 01:35:59;;;;;;;;;;;11.90;72.40;;;;;;5060836;28;19980;-87
2022/11/03 01:38:24;;;;;;;;;;;11.80;72.60;;;;;;5058431;28;20734;-87
2022/11/03 01:40:50;;;;;;;;;;;11.90;72.50;;;;;;5057103;28;19916;-90
2022/11/03 01:43:15;;;;;;;;;;;11.90;73.10;;;;;;5058197;28;19912;-86
2022/11/03 01:45:41;;;;;;;;;;;11.80;72.90;;;;;;5053726;28;20004;-87
2022/11/03 01:48:08;;;;;;;;;;;11.90;72.90;;;;;;5058640;28;19913;-87
2022/11/03 01:50:34;;;;;;;;;;;11.80;73.20;;;;;;5054613;28;20375;-87
2022/11/03 01:53:00;;;;;;;;;;;11.90;73.30;;;;;;5054003;28;20372;-88
2022/11/03 01:55:27;;;;;;;;;;;11.80;73.00;;;;;;5043077;28;19974;-87
2022/11/03 01:57:54;;;;;;;;;;;11.90;73.20;;;;;;5049321;28;20373;-86
2022/11/03 02:00:20;;;;;;;;;;;11.90;73.40;;;;;;5051679;28;19916;-86
2022/11/03 02:02:46;;;;;;;;;;;11.80;73.20;;;;;;5051228;28;20300;-88
2022/11/03 02:05:14;;;;;;;;;;;12.00;72.90;;;;;;5067376;28;19913;-87
2022/11/03 02:07:49;;;;;;;;;;;11.90;73.10;;;;;;5051858;28;19928;-86
2022/11/03 02:10:15;;;;;;;;;;;11.90;73.30;;;;;;5052838;28;19913;-87
2022/11/03 02:12:42;;;;;;;;;;;11.90;73.50;;;;;;5051869;28;20343;-87
2022/11/03 02:15:09;;;;;;;;;;;12.00;73.20;;;;;;5051975;28;19991;-87
2022/11/03 02:17:36;;;;;;;;;;;12.00;73.30;;;;;;5049856;28;19921;-87
2022/11/03 02:20:01;;;;;;;;;;;11.80;73.90;;;;;;5050372;28;20003;-86
2022/11/03 02:22:26;;;;;;;;;;;11.90;73.90;;;;;;5054795;28;19937;-86
2022/11/03 02:25:12;;;;;;;;;;;11.80;74.70;;;;;;5047750;28;19913;-86
2022/11/03 02:27:38;;;;;;;;;;;11.60;74.60;;;;;;5029966;28;20314;-87
2022/11/03 02:30:04;;;;;;;;;;;11.70;74.60;;;;;;5051303;28;19924;-88
2022/11/03 02:32:40;;;;;;;;;;;11.80;74.60;;;;;;5049989;28;19913;-87
2022/11/03 02:35:18;;;;;;;;;;;11.80;74.50;;;;;;5048506;28;19928;-87
2022/11/03 02:37:46;;;;;;;;;;;11.70;74.90;;;;;;5054793;28;19912;-87
2022/11/03 02:40:22;;;;;;;;;;;11.80;74.80;;;;;;5046992;28;19916;-87
2022/11/03 02:42:50;;;;;;;;;;;11.80;74.60;;;;;;5044737;28;19913;-86
2022/11/03 02:45:17;;;;;;;;;;;11.60;75.30;;;;;;5049775;28;19974;-88
2022/11/03 02:47:43;;;;;;;;;;;11.70;75.50;;;;;;5055546;28;19970;-86
2022/11/03 02:50:12;;;;;;;;;;;11.70;75.40;;;;;;5051464;28;20000;-87
2022/11/03 02:52:42;;;;;;;;;;;11.70;75.40;;;;;;5052001;28;20055;-86
2022/11/03 02:55:19;;;;;;;;;;;11.70;75.30;;;;;;5052810;28;19913;-87
2022/11/03 02:58:03;;;;;;;;;;;11.60;75.60;;;;;;5051197;28;19935;-87
2022/11/03 03:00:30;;;;;;;;;;;11.70;75.70;;;;;;5051346;28;19920;-86
2022/11/03 03:03:02;;;;;;;;;;;11.80;75.40;;;;;;5044392;28;19924;-86
2022/11/03 03:05:29;;;;;;;;;;;11.80;75.90;;;;;;5047467;28;19917;-89
2022/11/03 03:07:57;;;;;;;;;;;11.80;75.50;;;;;;5040428;28;19921;-85
2022/11/03 03:10:25;;;;;;;;;;;11.60;75.80;;;;;;5073593;28;19971;-88
2022/11/03 03:12:52;;;;;;;;;;;11.60;76.40;;;;;;5046253;28;19967;-86
2022/11/03 03:15:18;;;;;;;;;;;11.60;75.90;;;;;;5062799;28;19928;-86
2022/11/03 03:17:49;;;;;;;;;;;11.70;76.10;;;;;;5047355;28;19913;-86
2022/11/03 03:20:20;;;;;;;;;;;11.80;76.00;;;;;;5052379;28;20014;-87
2022/11/03 03:22:49;;;;;;;;;;;11.90;75.90;;;;;;5048680;28;20455;-86
2022/11/03 03:25:20;;;;;;;;;;;11.70;75.90;;;;;;5049555;28;20284;-85
2022/11/03 03:27:47;;;;;;;;;;;11.80;76.10;;;;;;5056193;28;20023;-86
2022/11/03 03:30:13;;;;;;;;;;;11.80;76.30;;;;;;5054453;28;19966;-86
2022/11/03 03:32:42;;;;;;;;;;;11.80;76.00;;;;;;5055680;28;19913;-87
2022/11/03 03:35:09;;;;;;;;;;;11.90;75.90;;;;;;5055661;28;19996;-86
2022/11/03 03:37:36;;;;;;;;;;;11.80;76.00;;;;;;5050520;28;19913;-86
2022/11/03 03:40:04;;;;;;;;;;;12.00;75.70;;;;;;5050600;28;19919;-87
2022/11/03 03:42:32;;;;;;;;;;;11.90;76.00;;;;;;5050640;28;20194;-86
2022/11/03 03:44:58;;;;;;;;;;;11.90;76.20;;;;;;5044878;28;19956;-86
2022/11/03 03:47:31;;;;;;;;;;;11.90;75.80;;;;;;5086396;28;19912;-86
2022/11/03 03:49:56;;;;;;;;;;;12.00;75.70;;;;;;5066722;28;19917;-87
2022/11/03 03:52:22;;;;;;;;;;;12.00;76.00;;;;;;5060817;28;19931;-86
2022/11/03 03:54:48;;;;;;;;;;;12.10;75.50;;;;;;5044464;28;19935;-86
2022/11/03 03:57:15;;;;;;;;;;;12.00;75.70;;;;;;5054692;28;19919;-87
2022/11/03 03:59:41;;;;;;;;;;;12.10;75.20;;;;;;5052840;28;20221;-87
2022/11/03 04:02:06;;;;;;;;;;;12.00;75.60;;;;;;5051947;28;19923;-86
2022/11/03 04:04:32;;;;;;;;;;;11.90;75.90;;;;;;5050094;28;19996;-86
2022/11/03 04:09:41;;;;;;;;;;;11.80;76.20;;;;;;5047441;28;19923;-86
2022/11/03 04:22:56;;;;;;;;;;;11.80;76.60;;;;;;5036421;28;19985;-82
2022/11/03 04:25:21;;;;;;;;;;;11.80;76.60;;;;;;5029440;28;19921;-82
2022/11/03 04:27:47;;;;;;;;;;;11.90;76.50;;;;;;5066449;28;19920;-84
2022/11/03 04:30:18;;;;;;;;;;;11.90;76.70;;;;;;5043220;28;19956;-82
2022/11/03 04:32:45;;;;;;;;;;;11.90;76.90;;;;;;5031701;28;19920;-82
2022/11/03 04:35:15;;;;;;;;;;;11.80;76.70;;;;;;5035002;28;20366;-82
2022/11/03 04:37:40;;;;;;;;;;;11.80;76.70;;;;;;5032633;28;19921;-83
2022/11/03 04:40:12;;;;;;;;;;;11.80;76.80;;;;;;5037471;28;19913;-84
2022/11/03 04:42:37;;;;;;;;;;;11.70;77.20;;;;;;5044447;28;19917;-84
2022/11/03 04:45:11;;;;;;;;;;;11.90;76.60;;;;;;5033611;28;20285;-84
2022/11/03 04:47:36;;;;;;;;;;;11.90;76.60;;;;;;5032350;28;19920;-84
2022/11/03 04:50:04;;;;;;;;;;;11.90;76.60;;;;;;5047306;28;20374;-84
2022/11/03 04:52:29;;;;;;;;;;;12.00;76.60;;;;;;5034262;28;19913;-83
2022/11/03 04:54:55;;;;;;;;;;;11.90;76.70;;;;;;5033670;28;19928;-82
2022/11/03 04:57:20;;;;;;;;;;;12.00;76.40;;;;;;5032675;28;19914;-81
2022/11/03 04:59:47;;;;;;;;;;;12.00;76.70;;;;;;5033823;28;19954;-82
2022/11/03 05:02:14;;;;;;;;;;;12.00;76.70;;;;;;5026059;28;19972;-83
2022/11/03 05:04:43;;;;;;;;;;;12.10;76.00;;;;;;5033319;28;19913;-81
2022/11/03 05:07:19;;;;;;;;;;;12.10;76.50;;;;;;5033231;28;19983;-82
2022/11/03 05:09:44;;;;;;;;;;;12.10;76.20;;;;;;5030891;28;19920;-81
2022/11/03 05:12:10;;;;;;;;;;;12.10;75.80;;;;;;5030749;28;19917;-81
2022/11/03 05:14:36;;;;;;;;;;;12.10;76.10;;;;;;5030358;28;19924;-82
2022/11/03 05:17:06;;;;;;;;;;;12.10;75.60;;;;;;5029503;28;19956;-82
2022/11/03 05:19:38;;;;;;;;;;;12.10;75.90;;;;;;5040688;28;19943;-82
2022/11/03 05:22:04;;;;;;;;;;;12.00;76.60;;;;;;5062486;28;19901;-82
2022/11/03 05:24:30;;;;;;;;;;;12.00;76.60;;;;;;5035681;28;20398;-82
2022/11/03 05:26:56;;;;;;;;;;;12.00;76.50;;;;;;5031519;28;19921;-83
2022/11/03 05:29:24;;;;;;;;;;;12.00;76.70;;;;;;5031747;28;19967;-82
2022/11/03 05:31:50;;;;;;;;;;;12.00;76.60;;;;;;5031209;28;19966;-82
2022/11/03 05:34:30;;;;;;;;;;;12.00;76.50;;;;;;5032904;28;20376;-81
2022/11/03 05:37:06;;;;;;;;;;;12.10;76.30;;;;;;5049212;28;19928;-82
2022/11/03 05:39:36;;;;;;;;;;;12.00;76.40;;;;;;5035077;28;19979;-83
2022/11/03 05:42:02;;;;;;;;;;;12.00;76.50;;;;;;5033622;28;19964;-81
2022/11/03 05:44:31;;;;;;;;;;;12.10;76.30;;;;;;5032724;28;20259;-82
2022/11/03 05:46:56;;;;;;;;;;;12.10;76.20;;;;;;5033665;28;19913;-81
2022/11/03 05:49:22;;;;;;;;;;;12.10;76.10;;;;;;5034286;28;20030;-82
2022/11/03 05:51:47;;;;;;;;;;;12.10;76.10;;;;;;5027424;28;21439;-81
2022/11/03 05:54:21;;;;;;;;;;;12.10;76.20;;;;;;5029404;28;19917;-81
2022/11/03 05:56:46;;;;;;;;;;;12.10;76.50;;;;;;5034542;28;19924;-82
2022/11/03 05:59:12;;;;;;;;;;;12.10;76.30;;;;;;5047826;28;19936;-84
2022/11/03 06:01:39;;;;;;;;;;;12.20;75.60;;;;;;5044359;28;19988;-82
2022/11/03 06:04:19;;;;;;;;;;;12.30;76.00;;;;;;5034108;28;20322;-84
2022/11/03 06:06:52;;;;;;;;;;;12.30;75.50;;;;;;5027401;28;19917;-83
2022/11/03 06:09:19;;;;;;;;;;;12.10;76.00;;;;;;5031793;28;19917;-83
2022/11/03 06:11:45;;;;;;;;;;;12.10;76.50;;;;;;5034810;28;19932;-84
2022/11/03 06:14:17;;;;;;;;;;;12.10;76.20;;;;;;5035378;28;19917;-83
2022/11/03 06:16:43;;;;;;;;;;;12.10;76.00;;;;;;5035606;28;19928;-83
2022/11/03 06:19:24;;;;;;;;;;;12.10;76.60;;;;;;5048605;28;19913;-85
2022/11/03 06:21:50;;;;;;;;;;;12.10;76.00;;;;;;5033237;28;19913;-85
2022/11/03 06:24:17;;;;;;;;;;;12.20;76.20;;;;;;5049905;28;20044;-85
2022/11/03 06:26:45;;;;;;;;;;;12.20;76.30;;;;;;5030478;28;19925;-83
2022/11/03 06:29:14;;;;;;;;;;;12.20;75.90;;;;;;5034816;28;19923;-83
2022/11/03 06:31:41;;;;;;;;;;;12.20;76.10;;;;;;5046672;28;19967;-83
2022/11/03 06:34:20;;;;;;;;;;;12.20;76.00;;;;;;5037024;28;19913;-82
2022/11/03 06:36:46;;;;;;;;;;;12.30;75.70;;;;;;5036892;28;19921;-82
2022/11/03 06:39:20;;;;;;;;;;;12.20;75.70;;;;;;5037701;28;19948;-82
2022/11/03 06:41:45;;;;;;;;;;;12.30;75.70;;;;;;5036047;28;19914;-81
2022/11/03 06:44:24;;;;;;;;;;;12.10;75.80;;;;;;5034680;28;19921;-81
2022/11/03 06:46:50;;;;;;;;;;;12.10;76.30;;;;;;5034836;28;19924;-83
2022/11/03 06:49:23;;;;;;;;;;;12.10;76.40;;;;;;5045243;28;19932;-80
2022/11/03 06:51:48;;;;;;;;;;;12.20;75.70;;;;;;5067764;28;19925;-82
2022/11/03 06:54:13;;;;;;;;;;;12.30;75.50;;;;;;5036776;28;19913;-82
2022/11/03 06:56:40;;;;;;;;;;;12.40;75.20;;;;;;5037305;28;19924;-82
2022/11/03 06:59:07;;;;;;;;;;;12.50;75.20;;;;;;5038995;28;20355;-82
2022/11/03 07:01:34;;;;;;;;;;;12.50;74.60;;;;;;5041104;28;19939;-82
2022/11/03 07:04:04;;;;;;;;;;;12.50;74.80;;;;;;5046609;28;19913;-82
2022/11/03 07:06:31;;;;;;;;;;;12.50;74.80;;;;;;5033732;28;19996;-82
2022/11/03 07:09:01;;;;;;;;;;;12.50;75.20;;;;;;5033488;28;20436;-82
2022/11/03 07:11:28;;;;;;;;;;;12.40;75.10;;;;;;5036325;28;19921;-82
2022/11/03 07:14:01;;;;;;;;;;;12.50;75.30;;;;;;5037512;28;19959;-82
2022/11/03 07:16:28;;;;;;;;;;;12.50;75.00;;;;;;5034216;28;19919;-82
2022/11/03 07:18:54;;;;;;;;;;;12.50;75.20;;;;;;5033007;28;19945;-81
2022/11/03 07:21:27;;;;;;;;;;;12.50;74.70;;;;;;5034474;28;19979;-81
2022/11/03 07:23:53;;;;;;;;;;;12.60;74.60;;;;;;5034008;28;19924;-82
2022/11/03 07:26:18;;;;;;;;;;;12.60;74.40;;;;;;5033503;28;19909;-81
2022/11/03 07:28:47;;;;;;;;;;;12.80;74.10;;;;;;5031474;28;20952;-82
2022/11/03 07:31:14;;;;;;;;;;;12.90;74.40;;;;;;5033986;28;20043;-82
2022/11/03 07:33:40;;;;;;;;;;;12.90;73.90;;;;;;5030829;28;19924;-81
2022/11/03 07:36:05;;;;;;;;;;;12.80;73.90;;;;;;5042125;28;19913;-82
2022/11/03 07:38:31;;;;;;;;;;;12.90;74.20;;;;;;5032870;28;20616;-82
2022/11/03 07:40:58;;;;;;;;;;;13.00;73.70;;;;;;5032622;28;20358;-82
2022/11/03 07:43:29;;;;;;;;;;;12.90;73.90;;;;;;5033175;28;19913;-82
2022/11/03 07:45:56;;;;;;;;;;;12.90;73.90;;;;;;5030526;28;19952;-81
2022/11/03 07:48:24;;;;;;;;;;;12.90;73.90;;;;;;5030734;28;19921;-81
2022/11/03 07:50:57;;;;;;;;;;;12.80;74.30;;;;;;5031489;28;19924;-82
2022/11/03 07:53:31;;;;;;;;;;;12.90;74.00;;;;;;5051940;28;19924;-82
2022/11/03 07:55:57;;;;;;;;;;;13.00;73.60;;;;;;5035575;28;19932;-82
2022/11/03 07:58:28;;;;;;;;;;;13.00;73.60;;;;;;5034044;28;20008;-82
2022/11/03 08:00:56;;;;;;;;;;;12.90;74.20;;;;;;5029882;28;19917;-82
2022/11/03 08:03:43;;;;;;;;;;;12.80;74.20;;;;;;5032994;28;19924;-81
2022/11/03 08:06:08;;;;;;;;;;;12.80;74.00;;;;;;5035383;28;20290;-82
2022/11/03 08:08:34;;;;;;;;;;;12.70;74.70;;;;;;5031045;28;19971;-81
2022/11/03 08:10:59;;;;;;;;;;;12.80;74.50;;;;;;5033017;28;19913;-81
2022/11/03 08:13:25;;;;;;;;;;;12.90;74.40;;;;;;5031286;28;20008;-81
2022/11/03 08:15:50;;;;;;;;;;;13.00;74.00;;;;;;5033465;28;19953;-81
2022/11/03 08:18:15;;;;;;;;;;;13.10;73.70;;;;;;5032319;28;19963;-81
2022/11/03 08:20:41;;;;;;;;;;;13.10;73.80;;;;;;5033220;28;19924;-81
2022/11/03 08:23:06;;;;;;;;;;;13.10;73.30;;;;;;5029094;28;19924;-81
2022/11/03 08:25:32;;;;;;;;;;;13.20;73.40;;;;;;5040529;28;19925;-82
2022/11/03 08:27:59;;;;;;;;;;;13.30;72.80;;;;;;5049395;28;19931;-83
2022/11/03 08:30:24;;;;;;;;;;;13.30;73.10;;;;;;5039329;28;19913;-82
2022/11/03 08:32:50;;;;;;;;;;;13.40;72.60;;;;;;5031390;28;19959;-81
2022/11/03 08:35:16;;;;;;;;;;;13.40;72.80;;;;;;5035675;28;19917;-82
2022/11/03 08:37:41;;;;;;;;;;;13.50;72.00;;;;;;5041301;28;19928;-82
2022/11/03 08:40:07;;;;;;;;;;;13.60;72.20;;;;;;5040682;28;19975;-82
2022/11/03 08:42:33;;;;;;;;;;;13.50;72.60;;;;;;5030321;28;19914;-82
2022/11/03 08:44:58;;;;;;;;;;;13.40;72.70;;;;;;5052282;28;19913;-82
2022/11/03 08:47:24;;;;;;;;;;;13.50;72.30;;;;;;5022887;28;20022;-82
2022/11/03 08:49:50;;;;;;;;;;;13.50;72.30;;;;;;5029965;28;19913;-84
2022/11/03 08:52:15;;;;;;;;;;;13.60;71.70;;;;;;5040554;28;19987;-84
2022/11/03 08:54:40;;;;;;;;;;;13.60;71.30;;;;;;5028097;28;19948;-84
2022/11/03 08:57:06;;;;;;;;;;;13.50;71.80;;;;;;5037487;28;19968;-83
2022/11/03 08:59:31;;;;;;;;;;;13.60;71.50;;;;;;5031241;28;19921;-82
2022/11/03 09:01:57;;;;;;;;;;;13.50;71.50;;;;;;5030819;28;19945;-81
2022/11/03 09:04:23;;;;;;;;;;;13.60;70.60;;;;;;5041159;28;19912;-82
2022/11/03 09:06:48;;;;;;;;;;;13.80;69.90;;;;;;5056777;28;20449;-81
2022/11/03 09:09:14;;;;;;;;;;;13.80;70.30;;;;;;5052639;28;19921;-82
2022/11/03 09:11:40;;;;;;;;;;;13.70;70.30;;;;;;5048538;28;19920;-81
2022/11/03 09:14:06;;;;;;;;;;;13.80;70.10;;;;;;5050855;28;19924;-82
2022/11/03 09:16:31;;;;;;;;;;;13.90;69.30;;;;;;5039974;28;19924;-84
2022/11/03 09:18:56;;;;;;;;;;;14.00;69.30;;;;;;5038393;28;19914;-83
2022/11/03 09:21:22;;;;;;;;;;;14.10;68.80;;;;;;5032291;28;19913;-81
2022/11/03 09:23:47;;;;;;;;;;;14.10;68.50;;;;;;5030707;28;19979;-83
2022/11/03 09:26:13;;;;;;;;;;;14.20;68.30;;;;;;5033418;28;19913;-82
2022/11/03 09:28:38;;;;;;;;;;;14.30;67.70;;;;;;5033133;28;19935;-82
2022/11/03 09:31:04;;;;;;;;;;;14.40;67.30;;;;;;5034896;28;20366;-82
2022/11/03 09:33:29;;;;;;;;;;;14.30;67.10;;;;;;5033101;28;20433;-82
2022/11/03 09:35:55;;;;;;;;;;;14.30;67.60;;;;;;5037819;28;19913;-84
2022/11/03 09:38:20;;;;;;;;;;;14.30;67.30;;;;;;5033965;28;19962;-82
2022/11/03 09:40:46;;;;;;;;;;;14.50;66.90;;;;;;5046501;28;19943;-84
2022/11/03 09:43:11;;;;;;;;;;;14.60;66.80;;;;;;5033284;28;19920;-83
2022/11/03 09:45:37;;;;;;;;;;;14.60;65.90;;;;;;5036672;28;19916;-83
2022/11/03 09:48:03;;;;;;;;;;;14.60;65.30;;;;;;5030732;28;20366;-82
2022/11/03 09:50:28;;;;;;;;;;;14.50;66.00;;;;;;5045159;28;19901;-82
2022/11/03 09:52:55;;;;;;;;;;;14.50;66.10;;;;;;5044108;28;19942;-82
2022/11/03 09:55:22;;;;;;;;;;;14.50;65.80;;;;;;5038969;28;20267;-84
2022/11/03 09:57:48;;;;;;;;;;;14.50;67.00;;;;;;5037269;28;19920;-83
2022/11/03 10:00:20;;;;;;;;;;;14.70;66.10;;;;;;5037195;28;20301;-82
2022/11/03 10:02:46;;;;;;;;;;;14.60;65.40;;;;;;5038670;28;19960;-83
2022/11/03 10:05:21;;;;;;;;;;;14.60;65.70;;;;;;5035851;28;19917;-82
2022/11/03 10:07:47;;;;;;;;;;;14.70;65.50;;;;;;5036281;28;20421;-82
2022/11/03 10:10:17;;;;;;;;;;;14.70;64.60;;;;;;5035157;28;19959;-82
2022/11/03 10:12:43;;;;;;;;;;;14.60;65.40;;;;;;5035766;28;19955;-82
2022/11/03 10:15:13;;;;;;;;;;;14.80;65.20;;;;;;5033860;28;19913;-81
2022/11/03 10:17:38;;;;;;;;;;;14.80;64.90;;;;;;5037891;28;19913;-82
2022/11/03 10:20:11;;;;;;;;;;;15.00;64.30;;;;;;5040036;28;19909;-81
2022/11/03 10:25:23;;;;;;;;;;;15.10;63.20;;;;;;5088272;22;19929;-84
2022/11/03 10:27:49;;;;;;;;;;;15.10;63.30;;;;;;5053890;28;20438;-82
2022/11/03 10:30:15;;;;;;;;;;;15.10;63.30;;;;;;5051701;28;19912;-83
2022/11/03 10:32:40;;;;;;;;;;;15.10;62.90;;;;;;5048407;28;19920;-80
2022/11/03 10:35:26;;;;;;;;;;;15.00;63.20;;;;;;5045990;28;19920;-80
2022/11/03 10:37:51;;;;;;;;;;;15.10;63.60;;;;;;5049974;28;19913;-81
2022/11/03 10:40:33;;;;;;;;;;;15.00;63.80;;;;;;5045265;28;19947;-80
2022/11/03 10:42:59;;;;;;;;;;;15.20;63.30;;;;;;5043230;28;19957;-79
2022/11/03 10:45:24;;;;;;;;;;;14.90;64.10;;;;;;5047950;28;20351;-79
2022/11/03 10:48:00;;;;;;;;;;;15.00;63.30;;;;;;5050171;28;19924;-81
2022/11/03 10:50:26;;;;;;;;;;;15.00;63.80;;;;;;5045388;28;19920;-81
2022/11/03 10:52:52;;;;;;;;;;;14.90;63.10;;;;;;5042942;28;19910;-81
2022/11/03 10:55:18;;;;;;;;;;;15.00;63.70;;;;;;5062248;28;19916;-81
2022/11/03 10:57:44;;;;;;;;;;;15.00;63.40;;;;;;5062462;28;19913;-80
2022/11/03 11:00:14;;;;;;;;;;;15.10;64.30;;;;;;5063018;28;19923;-81
2022/11/03 11:02:41;;;;;;;;;;;15.10;63.50;;;;;;5062293;28;19936;-81
2022/11/03 11:05:22;;;;;;;;;;;15.10;63.00;;;;;;5068872;28;19935;-81
2022/11/03 11:07:50;;;;;;;;;;;15.00;63.70;;;;;;5053103;28;20342;-78
2022/11/03 11:10:18;;;;;;;;;;;15.10;63.00;;;;;;5049600;28;19925;-80
2022/11/03 11:13:03;;;;;;;;;;;15.10;62.60;;;;;;5050634;28;19935;-77
2022/11/03 11:15:47;;;;;;;;;;;15.10;63.70;;;;;;5046750;28;19917;-79
2022/11/03 11:18:28;;;;;;;;;;;15.10;62.70;;;;;;5056441;28;19976;-78
2022/11/03 11:21:14;;;;;;;;;;;15.10;63.20;;;;;;5040067;28;19917;-79
2022/11/03 11:23:40;;;;;;;;;;;15.10;62.90;;;;;;5033005;28;19966;-78
2022/11/03 11:26:05;;;;;;;;;;;15.10;63.80;;;;;;5049312;28;19921;-79
2022/11/03 11:28:31;;;;;;;;;;;15.10;63.70;;;;;;5053355;28;19924;-78
2022/11/03 11:30:57;;;;;;;;;;;15.00;63.40;;;;;;5057750;28;19913;-80
2022/11/03 11:33:24;;;;;;;;;;;15.00;63.80;;;;;;5053466;28;19932;-80
2022/11/03 11:35:49;;;;;;;;;;;15.10;63.40;;;;;;5044180;28;20036;-78
2022/11/03 11:38:34;;;;;;;;;;;15.10;63.10;;;;;;5048421;28;19952;-79
2022/11/03 11:40:59;;;;;;;;;;;15.20;63.20;;;;;;5040602;28;19947;-79
2022/11/03 11:43:25;;;;;;;;;;;15.20;63.20;;;;;;5037764;28;19968;-78
2022/11/03 11:46:10;;;;;;;;;;;15.30;62.70;;;;;;5043179;28;20093;-78
2022/11/03 11:48:35;;;;;;;;;;;15.50;62.00;;;;;;5049832;28;20379;-78
2022/11/03 11:51:02;;;;;;;;;;;15.70;62.00;;;;;;5046917;28;19916;-79
2022/11/03 11:53:36;;;;;;;;;;;15.80;61.60;;;;;;5044820;28;19920;-79
2022/11/03 11:56:01;;;;;;;;;;;16.00;60.90;;;;;;5045299;28;19917;-80
2022/11/03 11:58:39;;;;;;;;;;;16.10;59.90;;;;;;5046380;28;19957;-79
2022/11/03 12:01:19;;;;;;;;;;;16.00;60.10;;;;;;5043689;28;20350;-79
2022/11/03 12:03:45;;;;;;;;;;;16.00;59.40;;;;;;5048173;28;19924;-79
2022/11/03 12:06:14;;;;;;;;;;;16.10;59.00;;;;;;5048119;28;19917;-79
2022/11/03 12:08:39;;;;;;;;;;;16.00;59.40;;;;;;5049785;28;19991;-79
2022/11/03 12:11:06;;;;;;;;;;;16.20;58.20;;;;;;5044545;28;21040;-81
2022/11/03 12:13:34;;;;;;;;;;;16.00;59.10;;;;;;5052508;28;20284;-79
2022/11/03 12:15:59;;;;;;;;;;;15.90;59.40;;;;;;5040564;28;19923;-79
2022/11/03 12:18:33;;;;;;;;;;;16.00;59.60;;;;;;5048770;28;19920;-79
2022/11/03 12:21:17;;;;;;;;;;;15.90;59.20;;;;;;5048130;28;19917;-78
2022/11/03 12:23:44;;;;;;;;;;;16.00;59.10;;;;;;5047894;28;20070;-79
2022/11/03 12:26:13;;;;;;;;;;;16.10;58.10;;;;;;5052903;28;20007;-79
2022/11/03 12:28:39;;;;;;;;;;;15.90;58.40;;;;;;5046248;28;19917;-78
2022/11/03 12:31:04;;;;;;;;;;;15.70;59.10;;;;;;5053570;28;20706;-79
2022/11/03 12:33:30;;;;;;;;;;;15.80;59.20;;;;;;5048607;28;19967;-79
2022/11/03 12:35:55;;;;;;;;;;;15.60;60.30;;;;;;5049438;28;19917;-79
2022/11/03 12:38:21;;;;;;;;;;;15.70;60.50;;;;;;5050380;28;19920;-78
2022/11/03 12:40:47;;;;;;;;;;;15.90;59.40;;;;;;5045996;28;19920;-78
2022/11/03 12:43:12;;;;;;;;;;;15.90;60.20;;;;;;5049545;28;19913;-78
2022/11/03 12:45:39;;;;;;;;;;;16.00;60.40;;;;;;5044683;28;19964;-78
2022/11/03 12:48:05;;;;;;;;;;;16.20;59.90;;;;;;5049159;28;19921;-78
2022/11/03 12:50:36;;;;;;;;;;;16.10;60.30;;;;;;5051769;28;21283;-79
2022/11/03 12:53:03;;;;;;;;;;;16.10;60.00;;;;;;5048270;28;19913;-80
2022/11/03 12:55:28;;;;;;;;;;;16.00;59.90;;;;;;5052792;28;19956;-81
2022/11/03 12:57:53;;;;;;;;;;;16.00;60.00;;;;;;5046994;28;19956;-81
2022/11/03 13:00:22;;;;;;;;;;;16.10;59.80;;;;;;5052183;28;19905;-81
2022/11/03 13:02:48;;;;;;;;;;;16.10;60.20;;;;;;5042778;28;20287;-80
2022/11/03 13:05:14;;;;;;;;;;;16.30;59.40;;;;;;5053124;28;19919;-82
2022/11/03 13:07:40;;;;;;;;;;;16.30;58.40;;;;;;5051346;28;19952;-82
2022/11/03 13:10:06;;;;;;;;;;;16.10;59.90;;;;;;5049117;28;19912;-82
2022/11/03 13:12:31;;;;;;;;;;;16.10;59.60;;;;;;5039105;28;19921;-82
2022/11/03 13:14:57;;;;;;;;;;;16.10;59.90;;;;;;5052113;28;19944;-82
2022/11/03 13:17:23;;;;;;;;;;;16.00;59.90;;;;;;5047243;28;19948;-82
2022/11/03 13:19:48;;;;;;;;;;;16.10;60.70;;;;;;5047314;28;19955;-82
2022/11/03 13:22:14;;;;;;;;;;;16.10;60.40;;;;;;5048033;28;19925;-83
2022/11/03 13:24:39;;;;;;;;;;;16.00;60.70;;;;;;5046881;28;20007;-82
2022/11/03 13:27:05;;;;;;;;;;;15.80;61.70;;;;;;5051508;28;20376;-82
2022/11/03 13:29:30;;;;;;;;;;;15.80;61.10;;;;;;5048137;28;20378;-81
2022/11/03 13:31:55;;;;;;;;;;;15.70;61.50;;;;;;5048215;28;20419;-82
2022/11/03 13:34:21;;;;;;;;;;;15.60;62.50;;;;;;5048757;28;19942;-81
2022/11/03 13:36:46;;;;;;;;;;;15.60;62.30;;;;;;5040096;28;19976;-81
2022/11/03 13:39:12;;;;;;;;;;;15.70;61.90;;;;;;5050413;28;19913;-81
2022/11/03 13:41:37;;;;;;;;;;;15.70;62.10;;;;;;5050549;28;19913;-80
2022/11/03 13:44:02;;;;;;;;;;;15.60;62.50;;;;;;5052748;28;19942;-79
2022/11/03 13:46:28;;;;;;;;;;;15.50;62.00;;;;;;5048151;28;19917;-79
2022/11/03 13:48:53;;;;;;;;;;;15.50;62.60;;;;;;5051940;28;19995;-79
2022/11/03 13:51:20;;;;;;;;;;;15.50;62.30;;;;;;5050977;28;20369;-79
2022/11/03 13:53:46;;;;;;;;;;;15.50;62.80;;;;;;5049827;28;19993;-80
2022/11/03 13:56:12;;;;;;;;;;;15.50;62.50;;;;;;5046524;28;19935;-79
2022/11/03 13:58:37;;;;;;;;;;;15.40;62.60;;;;;;5052167;28;19909;-79
2022/11/03 14:01:03;;;;;;;;;;;15.60;62.20;;;;;;5044560;28;19936;-78
2022/11/03 14:03:28;;;;;;;;;;;15.30;62.30;;;;;;5046240;28;19913;-79
2022/11/03 14:05:54;;;;;;;;;;;15.20;62.90;;;;;;5052712;28;20012;-79
2022/11/03 14:08:19;;;;;;;;;;;15.10;62.90;;;;;;5047106;28;19987;-79
2022/11/03 14:10:45;;;;;;;;;;;15.20;63.10;;;;;;5050455;28;19921;-79
2022/11/03 14:13:10;;;;;;;;;;;15.20;62.90;;;;;;5048140;28;19932;-79
2022/11/03 14:15:36;;;;;;;;;;;15.20;63.00;;;;;;5050398;28;19912;-79
2022/11/03 14:18:01;;;;;;;;;;;15.30;63.20;;;;;;5047330;28;20395;-79
2022/11/03 14:20:27;;;;;;;;;;;15.20;63.10;;;;;;5051448;28;19909;-79
2022/11/03 14:22:52;;;;;;;;;;;15.00;63.80;;;;;;5043228;28;19913;-79
2022/11/03 14:25:19;;;;;;;;;;;15.10;63.10;;;;;;5053130;28;19917;-78
2022/11/03 14:27:45;;;;;;;;;;;15.10;63.60;;;;;;5049839;28;19917;-79
2022/11/03 14:30:10;;;;;;;;;;;15.00;63.90;;;;;;5053736;28;19916;-80
2022/11/03 14:32:36;;;;;;;;;;;15.00;63.90;;;;;;5047014;28;19913;-79
2022/11/03 14:35:01;;;;;;;;;;;14.90;63.70;;;;;;5052503;28;19968;-79
2022/11/03 14:37:27;;;;;;;;;;;14.80;64.50;;;;;;5051121;28;19952;-79
2022/11/03 14:39:52;;;;;;;;;;;14.90;64.50;;;;;;5047313;28;19948;-79
2022/11/03 14:42:18;;;;;;;;;;;15.00;64.10;;;;;;5051850;28;19913;-78